Time;durP1;ratioP1;P1;durP2;ratioP2;P2;SDS_P1;SDS_P2;PMS_P1;PMS_P2;Temp;Humidity;BMP_temperature;BMP_pressure;BME280_temperature;BME280_humidity;BME280_pressure;Samples;Min_cycle;Max_cycle;Signal;HPM_P1;HPM_P2
2022/05/13 00:00:51;;;;;;;14.93;13.55;;;16.20;99.90;;;16.86;100.00;98199.66;5174745;28;20550;-61
2022/05/13 00:03:24;;;;;;;14.80;13.45;;;16.20;99.90;;;16.84;100.00;98196.13;5176955;28;20585;-62
2022/05/13 00:05:57;;;;;;;14.65;13.35;;;16.20;99.90;;;16.80;100.00;98202.03;5172540;28;20228;-61
2022/05/13 00:08:33;;;;;;;15.18;13.77;;;16.20;99.90;;;16.77;100.00;98183.81;5172366;28;20596;-60
2022/05/13 00:11:08;;;;;;;14.98;13.48;;;16.10;99.90;;;16.81;100.00;98196.91;5172961;28;20657;-60
2022/05/13 00:13:41;;;;;;;13.63;12.38;;;16.10;99.90;;;16.82;100.00;98197.78;5177972;28;20525;-61
2022/05/13 00:16:15;;;;;;;16.95;15.30;;;16.10;99.90;;;16.89;100.00;98200.66;5177500;28;20279;-62
2022/05/13 00:18:48;;;;;;;15.23;13.82;;;16.20;99.90;;;16.95;100.00;98194.84;5178369;28;20231;-62
2022/05/13 00:21:21;;;;;;;15.95;14.55;;;16.30;99.90;;;16.99;100.00;98196.69;5174937;28;20213;-63
2022/05/13 00:23:56;;;;;;;16.58;14.98;;;16.30;99.90;;;16.97;100.00;98198.38;5168213;28;20290;-63
2022/05/13 00:26:29;;;;;;;14.90;13.40;;;16.30;99.90;;;16.96;100.00;98203.47;5170253;28;20222;-63
2022/05/13 00:29:02;;;;;;;16.15;14.40;;;16.20;99.90;;;16.95;100.00;98194.84;5173799;28;20329;-62
2022/05/13 00:31:35;;;;;;;14.65;13.38;;;16.20;99.90;;;16.81;100.00;98188.28;5181967;28;20205;-64
2022/05/13 00:34:09;;;;;;;15.32;13.93;;;16.00;99.90;;;16.80;100.00;98186.53;5181454;28;20210;-63
2022/05/13 00:36:42;;;;;;;16.10;14.57;;;16.10;99.90;;;16.79;100.00;98174.44;5179608;28;20325;-63
2022/05/13 00:39:17;;;;;;;16.05;14.63;;;16.10;99.90;;;16.78;100.00;98186.47;5181283;28;20306;-63
2022/05/13 00:41:50;;;;;;;15.88;14.38;;;16.10;99.90;;;16.81;100.00;98172.78;5173795;28;20206;-63
2022/05/13 00:44:23;;;;;;;16.42;14.80;;;16.10;99.90;;;16.84;100.00;98172.91;5177933;28;20285;-63
2022/05/13 00:46:56;;;;;;;16.00;14.50;;;16.10;99.90;;;16.85;100.00;98172.06;5206133;28;20243;-62
2022/05/13 00:49:31;;;;;;;16.75;15.05;;;16.10;99.90;;;16.90;100.00;98167.97;5198395;28;20225;-63
2022/05/13 00:52:08;;;;;;;16.20;14.60;;;16.20;99.90;;;16.93;100.00;98168.06;5181493;28;20263;-61
2022/05/13 00:54:43;;;;;;;17.45;15.85;;;16.30;99.90;;;16.97;100.00;98164.81;5176875;28;20588;-63
2022/05/13 00:57:16;;;;;;;15.38;13.88;;;16.30;99.90;;;16.92;100.00;98168.03;5172096;28;20289;-64
2022/05/13 00:59:53;;;;;;;15.90;14.50;;;16.20;99.90;;;16.91;100.00;98166.25;5203594;28;20237;-62
2022/05/13 01:02:26;;;;;;;17.67;16.02;;;16.20;99.90;;;16.92;100.00;98163.75;5175606;28;20333;-67
2022/05/13 01:04:59;;;;;;;17.58;15.98;;;16.30;99.90;;;16.91;100.00;98159.38;5177586;28;20754;-64
2022/05/13 01:07:34;;;;;;;16.30;14.70;;;16.20;99.90;;;16.95;100.00;98165.56;5175272;28;20573;-64
2022/05/13 01:10:14;;;;;;;15.77;14.27;;;16.20;99.90;;;16.87;100.00;98170.44;5180098;28;20195;-64
2022/05/13 01:12:52;;;;;;;16.90;15.30;;;16.10;99.90;;;16.91;100.00;98161.09;5173810;28;20293;-63
2022/05/13 01:15:32;;;;;;;18.13;16.35;;;16.10;99.90;;;16.92;100.00;98168.91;5174878;28;20223;-63
2022/05/13 01:18:08;;;;;;;18.65;16.95;;;16.10;99.90;;;16.96;100.00;98165.59;5173633;28;20198;-63
2022/05/13 01:20:50;;;;;;;16.70;15.20;;;16.30;99.90;;;16.95;100.00;98163.84;5181030;28;20218;-64
2022/05/13 01:23:30;;;;;;;16.88;15.35;;;16.20;99.90;;;16.88;100.00;98167.00;5176438;28;20255;-64
2022/05/13 01:26:07;;;;;;;18.23;16.52;;;16.10;99.90;;;16.88;100.00;98161.84;5180669;28;20714;-64
2022/05/13 01:28:43;;;;;;;16.80;15.30;;;16.10;99.90;;;16.93;100.00;98165.50;5172398;28;20219;-64
2022/05/13 01:31:24;;;;;;;17.73;16.08;;;16.20;99.90;;;16.92;100.00;98163.75;5172811;28;20231;-64
2022/05/13 01:33:58;;;;;;;19.33;17.55;;;16.20;99.90;;;16.89;100.00;98156.75;5174114;28;20198;-64
2022/05/13 01:36:32;;;;;;;17.45;15.75;;;16.10;99.90;;;16.86;100.00;98148.91;5173589;28;20295;-63
2022/05/13 01:39:07;;;;;;;15.32;13.93;;;16.10;99.90;;;16.84;100.00;98157.41;5174596;28;20207;-61
2022/05/13 01:41:40;;;;;;;15.60;14.18;;;16.10;99.90;;;16.80;100.00;98148.69;5179121;28;20198;-62
2022/05/13 01:44:13;;;;;;;17.35;15.65;;;16.00;99.90;;;16.76;100.00;98140.72;5178672;28;20640;-62
2022/05/13 01:46:46;;;;;;;16.25;14.75;;;16.00;99.90;;;16.79;100.00;98136.56;5180806;28;20227;-62
2022/05/13 01:49:20;;;;;;;17.33;15.73;;;16.10;99.90;;;16.80;100.00;98133.19;5173551;28;20215;-63
2022/05/13 01:51:53;;;;;;;16.65;15.05;;;16.00;99.90;;;16.80;100.00;98140.06;5173893;28;20289;-63
2022/05/13 01:54:27;;;;;;;19.10;17.20;;;16.00;99.90;;;16.80;100.00;98145.22;5181032;28;20594;-62
2022/05/13 01:57:00;;;;;;;15.73;14.43;;;16.10;99.90;;;16.77;100.00;98140.81;5179723;28;20248;-63
2022/05/13 01:59:33;;;;;;;19.55;17.70;;;16.00;99.90;;;16.77;100.00;98134.75;5174713;28;20676;-63
2022/05/13 02:02:07;;;;;;;18.63;16.80;;;16.00;99.90;;;16.73;100.00;98133.72;5199453;28;20221;-63
2022/05/13 02:04:39;;;;;;;18.67;16.88;;;15.90;99.90;;;16.71;100.00;98144.81;5177014;28;20565;-63
2022/05/13 02:07:12;;;;;;;19.73;17.77;;;15.90;99.90;;;16.77;100.00;98147.66;5173789;28;20210;-63
2022/05/13 02:09:47;;;;;;;21.02;18.77;;;16.10;99.90;;;16.78;100.00;98155.47;5208236;28;20286;-63
2022/05/13 02:12:20;;;;;;;19.17;17.30;;;16.10;99.90;;;16.79;100.00;98151.19;5176458;28;20293;-62
2022/05/13 02:14:53;;;;;;;20.90;18.70;;;16.10;99.90;;;16.84;100.00;98153.13;5178387;28;20264;-63
2022/05/13 02:17:26;;;;;;;20.73;18.52;;;16.20;99.90;;;16.90;100.00;98144.72;5172384;28;20663;-62
2022/05/13 02:20:00;;;;;;;21.23;19.13;;;16.30;99.90;;;16.95;100.00;98152.66;5176936;28;20263;-62
2022/05/13 02:22:33;;;;;;;20.38;18.38;;;16.20;99.90;;;16.93;100.00;98168.06;5177188;28;20198;-61
2022/05/13 02:25:09;;;;;;;19.42;17.50;;;16.20;99.90;;;16.94;100.00;98172.44;5179150;28;20310;-62
2022/05/13 02:27:42;;;;;;;19.75;17.85;;;16.20;99.90;;;16.92;100.00;98174.06;5169442;28;20720;-63
2022/05/13 02:30:16;;;;;;;20.60;18.52;;;16.20;99.90;;;16.89;100.00;98168.78;5172924;28;20298;-62
2022/05/13 02:32:49;;;;;;;18.17;16.58;;;16.10;99.90;;;16.89;100.00;98172.25;5173738;28;20200;-62
2022/05/13 02:35:22;;;;;;;21.85;18.88;;;16.10;99.90;;;16.87;100.00;98171.31;5177188;28;20234;-62
2022/05/13 02:37:56;;;;;;;18.77;16.95;;;16.10;99.90;;;16.85;100.00;98172.97;5177040;28;20289;-62
2022/05/13 02:43:18;;;;;;;18.45;16.67;;;16.20;99.90;;;16.93;100.00;98174.94;5172213;28;20558;-61
2022/05/13 02:45:51;;;;;;;18.55;16.63;;;16.30;99.90;;;16.91;100.00;98176.59;5177153;28;20245;-62
2022/05/13 02:48:25;;;;;;;20.13;18.00;;;16.20;99.90;;;16.89;100.00;98181.72;5179019;28;20203;-62
2022/05/13 02:50:58;;;;;;;19.90;18.08;;;16.20;99.90;;;16.86;100.00;98179.00;5173859;28;20202;-61
2022/05/13 02:53:31;;;;;;;18.50;16.63;;;16.10;99.90;;;16.80;100.00;98166.75;5169206;28;20202;-62
2022/05/13 02:56:07;;;;;;;22.90;18.45;;;16.00;99.90;;;16.76;100.00;98177.78;5177515;28;20580;-61
2022/05/13 02:58:41;;;;;;;16.52;15.02;;;16.00;99.90;;;16.71;100.00;98178.38;5173946;28;20199;-62
2022/05/13 03:01:17;;;;;;;17.08;15.48;;;16.00;99.90;;;16.63;100.00;98142.84;5180789;28;20329;-62
2022/05/13 03:03:51;;;;;;;17.45;15.82;;;15.90;99.90;;;16.56;100.00;98148.59;5177278;28;20222;-62
2022/05/13 03:06:24;;;;;;;18.00;16.20;;;15.80;99.90;;;16.53;100.00;98163.06;5179946;28;20676;-62
2022/05/13 03:08:58;;;;;;;18.95;17.10;;;15.80;99.90;;;16.58;100.00;98170.19;5172889;28;20647;-63
2022/05/13 03:11:32;;;;;;;21.27;19.13;;;15.90;99.90;;;16.66;100.00;98167.91;5177285;28;20205;-63
2022/05/13 03:14:06;;;;;;;20.33;18.33;;;15.90;99.90;;;16.68;100.00;98166.22;5189518;28;20205;-62
2022/05/13 03:16:39;;;;;;;21.90;19.67;;;16.00;99.90;;;16.69;100.00;98174.88;5179897;28;20226;-63
2022/05/13 03:19:12;;;;;;;18.02;16.35;;;16.00;99.90;;;16.73;100.00;98166.41;5171894;28;20202;-64
2022/05/13 03:21:45;;;;;;;16.95;15.25;;;16.00;99.90;;;16.74;100.00;98163.00;5174583;28;20332;-64
2022/05/13 03:24:18;;;;;;;16.88;15.30;;;16.00;99.90;;;16.73;100.00;98156.09;5176221;28;20216;-62
2022/05/13 03:26:53;;;;;;;17.75;15.20;;;16.00;99.90;;;16.70;100.00;98150.81;5179412;28;20227;-62
2022/05/13 03:29:27;;;;;;;17.67;15.80;;;16.00;99.90;;;16.73;100.00;98163.84;5174828;28;20229;-63
2022/05/13 03:32:05;;;;;;;16.25;14.43;;;16.10;99.90;;;16.72;100.00;98162.09;5177004;28;20205;-63
2022/05/13 03:34:38;;;;;;;16.55;13.70;;;16.00;99.90;;;16.70;100.00;98166.31;5174253;28;20201;-63
2022/05/13 03:37:11;;;;;;;14.35;13.13;;;16.00;99.90;;;16.65;100.00;98168.69;5175994;28;20233;-64
2022/05/13 03:39:44;;;;;;;15.18;13.68;;;15.90;99.90;;;16.64;100.00;98167.81;5173988;28;20207;-64
2022/05/13 03:42:22;;;;;;;15.27;13.35;;;15.90;99.90;;;16.63;100.00;98165.22;5174471;28;20258;-63
2022/05/13 03:44:57;;;;;;;15.27;13.88;;;15.80;99.90;;;16.59;100.00;98169.34;5177122;28;20248;-64
2022/05/13 03:47:30;;;;;;;13.77;12.38;;;15.80;99.90;;;16.58;100.00;98166.72;5178539;28;20320;-63
2022/05/13 03:50:04;;;;;;;15.45;13.80;;;15.80;99.90;;;16.57;100.00;98165.84;5174541;28;20227;-64
2022/05/13 03:52:37;;;;;;;14.60;13.15;;;15.90;99.90;;;16.60;100.00;98170.25;5175447;28;20232;-64
2022/05/13 03:55:11;;;;;;;13.25;11.95;;;15.90;99.90;;;16.62;100.00;98169.47;5175260;28;20230;-64
2022/05/13 03:57:46;;;;;;;14.05;12.05;;;15.90;99.90;;;16.55;100.00;98164.91;5174718;28;20211;-64
2022/05/13 04:00:20;;;;;;;17.98;14.27;;;15.70;99.90;;;16.54;100.00;98172.56;5172660;28;20721;-65
2022/05/13 04:02:54;;;;;;;13.80;12.50;;;15.70;99.90;;;16.51;100.00;98160.47;5174288;28;20223;-65
2022/05/13 04:11:05;;;;;;;14.35;13.02;;;15.80;99.90;;;16.59;100.00;98168.47;5166783;28;20210;-65
2022/05/13 04:16:30;;;;;;;12.73;11.65;;;15.90;99.90;;;16.65;100.00;98164.44;5174888;28;20714;-65
2022/05/13 04:19:04;;;;;;;14.38;12.95;;;15.90;99.90;;;16.64;100.00;98178.16;5179791;28;21864;-65
2022/05/13 04:21:40;;;;;;;17.50;14.38;;;15.90;99.90;;;16.70;100.00;98181.78;5176869;28;20206;-65
2022/05/13 04:29:44;;;;;;;13.32;12.00;;;15.90;99.90;;;16.67;100.00;98175.69;5201620;28;20218;-65
2022/05/13 04:32:17;;;;;;;13.57;12.18;;;15.90;99.90;;;16.67;100.00;98167.94;5204974;28;20620;-65
2022/05/13 04:34:51;;;;;;;15.27;13.68;;;15.80;99.90;;;16.59;100.00;98169.34;5201756;28;20229;-63
2022/05/13 04:37:25;;;;;;;15.65;13.68;;;15.80;99.90;;;16.64;100.00;98166.94;5205143;28;20723;-64
2022/05/13 04:39:58;;;;;;;15.48;13.77;;;15.80;99.90;;;16.61;100.00;98183.19;5202892;28;20243;-64
2022/05/13 04:45:26;;;;;;;14.00;12.75;;;15.80;99.90;;;16.62;100.00;98184.94;5202765;28;20243;-64
2022/05/13 04:48:17;;;;;;;14.27;12.90;;;15.80;99.90;;;16.58;100.00;98189.94;5206169;28;20207;-65
2022/05/13 04:50:53;;;;;;;13.90;12.70;;;15.70;99.90;;;16.49;100.00;98192.19;5209410;28;20202;-64
2022/05/13 04:53:29;;;;;;;14.05;12.75;;;15.60;99.90;;;16.54;100.00;98196.69;5207656;28;20211;-65
2022/05/13 04:56:06;;;;;;;14.18;12.85;;;15.70;99.90;;;16.61;100.00;98203.84;5203807;28;20225;-64
2022/05/13 04:58:41;;;;;;;15.75;14.25;;;15.80;99.90;;;16.58;100.00;98198.56;5205223;28;20201;-64
2022/05/13 05:01:18;;;;;;;15.57;14.00;;;15.70;99.90;;;16.62;100.00;98207.31;5204256;28;20222;-65
2022/05/13 05:03:52;;;;;;;15.25;13.65;;;15.70;99.90;;;16.64;100.00;98203.09;5203880;28;20196;-64
2022/05/13 05:06:25;;;;;;;18.25;16.10;;;15.80;99.90;;;16.65;100.00;98210.00;5204139;28;20309;-64
2022/05/13 05:08:58;;;;;;;17.08;15.38;;;15.90;99.90;;;16.71;100.00;98210.25;5205779;28;20647;-64
2022/05/13 05:11:36;;;;;;;14.23;12.82;;;15.90;99.90;;;16.73;100.00;98205.16;5206977;28;20750;-64
2022/05/13 05:14:09;;;;;;;14.57;13.27;;;15.90;99.90;;;16.74;100.00;98205.22;5194893;28;20216;-64
2022/05/13 05:16:48;;;;;;;15.18;13.77;;;15.90;99.90;;;16.75;100.00;98216.41;5201866;28;20581;-64
2022/05/13 05:19:21;;;;;;;15.93;13.43;;;15.90;99.90;;;16.78;100.00;98211.41;5203119;28;20576;-63
2022/05/13 05:21:54;;;;;;;13.38;11.98;;;16.00;99.90;;;16.80;100.00;98227.84;5206756;28;20345;-63
2022/05/13 05:24:27;;;;;;;13.65;12.35;;;16.00;99.90;;;16.75;100.00;98216.41;5214212;28;20649;-63
2022/05/13 05:27:00;;;;;;;13.95;12.52;;;15.90;99.90;;;16.70;100.00;98217.94;5207220;28;20288;-64
2022/05/13 05:29:33;;;;;;;14.20;12.45;;;15.80;99.90;;;16.74;100.00;98218.13;5199821;28;20660;-63
2022/05/13 05:32:09;;;;;;;13.00;11.90;;;15.90;99.90;;;16.79;100.00;98215.72;5206627;28;20536;-63
2022/05/13 05:34:42;;;;;;;13.82;11.82;;;15.90;99.90;;;16.81;100.00;98212.38;5203934;28;20281;-63
2022/05/13 05:37:15;;;;;;;14.55;13.18;;;15.90;99.90;;;16.79;100.00;98214.03;5208708;28;20213;-64
2022/05/13 05:39:48;;;;;;;13.48;12.27;;;15.90;99.90;;;16.84;100.00;98217.66;5203847;28;20657;-63
2022/05/13 05:42:21;;;;;;;14.07;12.63;;;16.00;99.90;;;16.85;100.00;98224.63;5206822;28;20670;-63
2022/05/13 05:44:54;;;;;;;21.02;14.73;;;16.10;99.90;;;16.89;100.00;98226.47;5203086;28;20230;-63
2022/05/13 05:47:29;;;;;;;15.00;13.48;;;16.00;99.90;;;16.87;100.00;98222.06;5202343;28;20234;-64
2022/05/13 05:50:04;;;;;;;13.95;12.23;;;16.00;99.90;;;16.84;100.00;98220.25;5201664;28;20201;-64
2022/05/13 05:52:37;;;;;;;13.02;11.82;;;15.90;99.90;;;16.82;100.00;98223.59;5199443;28;20244;-63
2022/05/13 05:58:06;;;;;;;14.77;12.60;;;15.90;99.90;;;16.74;100.00;98230.13;5206926;28;20221;-65
2022/05/13 06:00:42;;;;;;;15.30;13.70;;;15.90;99.90;;;16.74;100.00;98219.78;5202325;28;20289;-64
2022/05/13 06:03:18;;;;;;;13.60;12.35;;;16.00;99.90;;;16.75;100.00;98231.91;5201844;28;20594;-64
2022/05/13 06:05:59;;;;;;;16.10;14.30;;;16.00;99.90;;;16.70;100.00;98233.41;5202943;28;20217;-65
2022/05/13 06:08:32;;;;;;;15.27;13.70;;;16.00;99.90;;;16.67;100.00;98234.19;5199753;28;20650;-64
2022/05/13 06:11:06;;;;;;;16.10;14.40;;;15.90;99.90;;;16.70;100.00;98233.41;5202519;28;20206;-64
2022/05/13 06:13:39;;;;;;;14.40;12.65;;;16.00;99.90;;;16.71;100.00;98230.91;5204377;28;20230;-65
2022/05/13 06:16:22;;;;;;;16.77;15.00;;;16.00;99.90;;;16.79;100.00;98229.50;5199404;28;20222;-65
2022/05/13 06:19:00;;;;;;;17.63;15.63;;;16.10;99.90;;;16.89;100.00;98235.94;5201367;28;20203;-64
2022/05/13 06:21:37;;;;;;;15.73;14.10;;;16.20;99.90;;;16.91;100.00;98235.97;5201334;28;20240;-64
2022/05/13 06:24:10;;;;;;;15.55;14.00;;;16.20;99.90;;;16.94;100.00;98246.41;5205767;28;20198;-65
2022/05/13 06:26:43;;;;;;;17.85;15.32;;;16.20;99.90;;;16.92;100.00;98248.97;5209755;28;20283;-64
2022/05/13 06:29:17;;;;;;;14.98;13.60;;;16.10;99.90;;;16.89;100.00;98246.25;5206828;28;20241;-64
2022/05/13 06:31:52;;;;;;;15.88;13.68;;;16.10;99.90;;;16.83;100.00;98236.56;5202394;28;20629;-64
2022/05/13 06:34:28;;;;;;;14.75;13.35;;;16.00;99.90;;;16.84;100.00;98243.50;5212172;28;20645;-64
2022/05/13 06:37:01;;;;;;;14.68;13.35;;;16.00;99.90;;;16.88;100.00;98247.06;5207749;28;20331;-64
2022/05/13 06:39:34;;;;;;;17.92;14.82;;;16.10;99.90;;;16.96;100.00;98250.81;5208708;28;20637;-64
2022/05/13 06:42:07;;;;;;;15.25;13.80;;;16.20;99.90;;;17.04;100.00;98246.84;5209480;28;20599;-64
2022/05/13 06:44:40;;;;;;;16.25;14.52;;;16.20;99.90;;;17.07;100.00;98246.94;5209422;28;20691;-64
2022/05/13 06:47:13;;;;;;;16.67;14.98;;;16.20;99.90;;;17.07;100.00;98246.06;5210447;28;20297;-64
2022/05/13 06:49:48;;;;;;;15.80;14.23;;;16.20;99.90;;;17.09;100.00;98250.47;5211430;28;20202;-64
2022/05/13 06:52:21;;;;;;;17.00;14.73;;;16.20;99.90;;;17.09;100.00;98249.59;5208611;28;20255;-64
2022/05/13 06:55:16;;;;;;;17.17;15.48;;;16.20;99.90;;;17.16;100.00;98251.56;5209882;28;20230;-64
2022/05/13 06:57:49;;;;;;;15.50;14.10;;;16.20;99.90;;;17.20;100.00;98239.69;5206022;28;20555;-64
2022/05/13 07:00:22;;;;;;;17.77;14.85;;;16.30;99.90;;;17.30;100.00;98234.00;5215330;28;20637;-64
2022/05/13 07:02:55;;;;;;;18.20;15.43;;;16.40;99.90;;;17.56;100.00;98243.56;5211854;28;20214;-64
2022/05/13 07:05:30;;;;;;;17.30;15.63;;;16.60;99.90;;;17.70;100.00;98257.00;5209794;28;20275;-63
2022/05/13 07:08:04;;;;;;;17.77;15.98;;;16.70;99.90;;;17.77;100.00;98258.09;5206571;28;20209;-63
2022/05/13 07:10:39;;;;;;;15.48;13.38;;;16.70;99.90;;;17.59;100.00;98272.94;5201359;28;20609;-64
2022/05/13 07:13:15;;;;;;;15.90;13.30;;;16.50;99.90;;;17.63;100.00;98259.31;5207287;28;20209;-63
2022/05/13 07:15:48;;;;;;;14.32;12.85;;;16.50;99.90;;;17.62;100.00;98260.13;5197808;28;20764;-63
2022/05/13 07:18:21;;;;;;;13.38;11.95;;;16.50;99.90;;;17.61;100.00;98264.44;5206920;28;20206;-64
2022/05/13 07:20:55;;;;;;;14.23;12.43;;;16.50;99.90;;;17.58;100.00;98258.28;5209579;28;20632;-63
2022/05/13 07:23:29;;;;;;;13.27;11.65;;;16.40;99.90;;;17.52;100.00;98262.38;5202110;28;20263;-63
2022/05/13 07:26:02;;;;;;;12.23;10.98;;;16.40;99.90;;;17.43;100.00;98266.38;5200209;28;20220;-63
2022/05/13 07:28:36;;;;;;;12.48;11.32;;;16.30;99.90;;;17.58;100.00;98264.31;5208232;28;20236;-63
2022/05/13 07:31:09;;;;;;;13.73;12.07;;;16.50;99.90;;;17.83;100.00;98253.19;5209000;28;20198;-63
2022/05/13 07:33:42;;;;;;;12.48;11.38;;;16.70;99.90;;;18.05;100.00;98259.06;5210069;28;20239;-63
2022/05/13 07:36:17;;;;;;;11.95;10.68;;;16.90;99.90;;;18.12;100.00;98258.47;5200667;28;20231;-63
2022/05/13 07:41:41;;;;;;;10.98;10.07;;;16.80;99.90;;;18.14;100.00;98273.22;5211238;28;20201;-64
2022/05/13 07:44:15;;;;;;;11.77;10.55;;;16.70;99.90;;;18.09;100.00;98286.81;5215960;28;20247;-63
2022/05/13 07:46:49;;;;;;;11.40;10.40;;;16.70;99.90;;;18.01;100.00;98291.72;5213576;28;20743;-63
2022/05/13 07:49:22;;;;;;;12.05;10.88;;;16.60;99.90;;;17.99;100.00;98296.84;5212702;28;20225;-63
2022/05/13 07:51:56;;;;;;;10.57;9.57;;;16.70;99.90;;;17.95;100.00;98299.28;5212384;28;20209;-64
2022/05/13 07:54:29;;;;;;;10.82;9.77;;;16.70;99.90;;;17.87;100.00;98298.13;5215102;28;20246;-63
2022/05/13 07:57:04;;;;;;;11.18;10.10;;;16.60;99.90;;;17.78;100.00;98302.13;5210073;28;20203;-63
2022/05/13 08:02:25;;;;;;;11.98;10.82;;;16.50;99.90;;;17.73;100.00;98310.53;5206795;28;20297;-64
2022/05/13 08:04:58;;;;;;;13.20;11.63;;;16.50;99.90;;;17.62;100.00;98304.06;5212315;28;20228;-64
2022/05/13 08:07:32;;;;;;;13.18;11.77;;;16.50;99.90;;;17.60;100.00;98305.72;5212458;28;20194;-64
2022/05/13 08:10:07;;;;;;;11.10;9.95;;;16.50;99.90;;;17.62;100.00;98301.50;5215519;28;20292;-63
2022/05/13 08:12:42;;;;;;;13.23;11.85;;;16.60;99.90;;;17.64;100.00;98305.03;5214845;28;20247;-63
2022/05/13 08:15:15;;;;;;;13.35;11.80;;;16.60;99.90;;;17.70;100.00;98303.53;5202891;28;20229;-63
2022/05/13 08:17:48;;;;;;;12.10;11.00;;;16.60;99.90;;;17.76;100.00;98311.50;5208724;28;20284;-63
2022/05/13 08:20:22;;;;;;;13.55;11.68;;;16.60;99.90;;;17.81;100.00;98314.31;5208084;28;20230;-63
2022/05/13 08:22:57;;;;;;;13.27;10.88;;;16.70;99.90;;;17.84;100.00;98314.41;5211934;28;20225;-64
2022/05/13 08:25:30;;;;;;;12.02;10.68;;;16.70;99.90;;;17.93;100.00;98308.69;5209965;28;20242;-63
2022/05/13 08:28:05;;;;;;;11.30;10.40;;;16.80;99.90;;;18.02;100.00;98312.47;5212774;28;20321;-64
2022/05/13 08:30:39;;;;;;;12.43;11.13;;;16.90;99.90;;;18.12;100.00;98308.50;5208370;28;20197;-63
2022/05/13 08:33:13;;;;;;;13.00;11.25;;;16.90;99.90;;;18.24;100.00;98310.63;5209135;28;20206;-63
2022/05/13 08:35:49;;;;;;;12.20;10.93;;;17.00;99.90;;;18.54;100.00;98308.19;5212891;28;21021;-61
2022/05/13 08:38:27;;;;;;;11.50;10.32;;;17.30;99.90;;;18.83;100.00;98314.34;5214274;28;20251;-61
2022/05/13 08:41:18;;;;;;;11.10;9.48;;;17.50;99.90;;;19.02;100.00;98310.59;5211832;28;20190;-64
2022/05/13 08:43:56;;;;;;;11.13;10.10;;;17.60;99.90;;;19.25;100.00;98311.31;5210648;28;20217;-61
2022/05/13 08:46:37;;;;;;;9.63;8.75;;;18.00;99.90;;;19.47;100.00;98312.81;5208296;28;20781;-62
2022/05/13 08:49:37;;;;;;;12.20;8.95;;;18.40;99.90;;;19.82;94.25;98312.09;5211551;28;20499;-61
2022/05/13 08:55:19;;;;;;;11.52;8.48;;;19.00;99.90;;;19.68;88.93;98299.63;5208398;28;20222;-61
2022/05/13 08:57:53;;;;;;;10.60;8.00;;;18.70;99.90;;;19.45;89.48;98290.28;5210771;28;20274;-61
2022/05/13 09:00:33;;;;;;;9.50;7.75;;;18.50;99.90;;;19.30;92.16;98304.53;5209364;28;20655;-61
2022/05/13 09:03:23;;;;;;;15.10;8.52;;;18.40;99.90;;;19.36;93.56;98309.91;5209273;28;20206;-61
2022/05/13 09:06:04;;;;;;;10.63;7.50;;;18.50;99.90;;;19.51;96.58;98314.66;5217046;28;20762;-61
2022/05/13 09:08:45;;;;;;;10.38;8.55;;;18.60;99.90;;;19.58;95.56;98311.44;5212192;28;20198;-62
2022/05/13 09:11:30;;;;;;;7.97;6.85;;;18.70;99.90;;;19.62;92.39;98304.59;5208724;28;20672;-61
2022/05/13 09:14:10;;;;;;;10.82;6.95;;;18.60;99.90;;;19.61;91.91;98305.44;5208760;28;20228;-61
2022/05/13 09:17:00;;;;;;;8.45;7.55;;;18.70;99.90;;;19.56;93.44;98312.22;5205109;28;20320;-61
2022/05/13 09:19:44;;;;;;;9.35;7.32;;;18.50;99.90;;;19.49;90.06;98315.47;5209184;28;20210;-61
2022/05/13 09:22:17;;;;;;;8.50;7.55;;;18.40;99.90;;;19.32;88.80;98318.44;5209754;28;20685;-61
2022/05/13 09:24:50;;;;;;;9.85;6.90;;;18.30;99.90;;;19.30;94.28;98314.91;5209401;28;20361;-61
2022/05/13 09:27:48;;;;;;;10.23;7.40;;;18.30;99.90;;;19.22;92.43;98315.53;5203288;28;20213;-61
2022/05/13 09:30:24;;;;;;;11.27;7.97;;;18.30;99.90;;;19.15;91.35;98314.47;5215498;28;20205;-61
2022/05/13 09:32:58;;;;;;;10.15;7.38;;;18.30;99.90;;;19.13;90.20;98309.22;5212551;28;20206;-61
2022/05/13 09:35:39;;;;;;;9.05;7.63;;;18.20;99.90;;;19.26;88.64;98309.63;5206863;28;20241;-61
2022/05/13 09:38:15;;;;;;;10.38;7.35;;;18.50;99.90;;;19.71;89.04;98311.78;5203602;28;20201;-61
2022/05/13 09:40:59;;;;;;;9.50;7.70;;;18.90;99.90;;;19.94;89.64;98315.03;5212505;28;20615;-62
2022/05/13 09:43:37;;;;;;;10.35;7.63;;;19.20;99.90;;;20.08;92.80;98313.69;5211654;28;20197;-62
2022/05/13 09:46:20;;;;;;;9.35;7.72;;;19.30;99.90;;;19.85;82.30;98309.59;5215320;28;20222;-62
2022/05/13 09:48:58;;;;;;;6.30;5.47;;;19.10;99.90;;;19.82;81.88;98314.69;5207815;28;20189;-61
2022/05/13 09:51:37;;;;;;;7.20;6.47;;;18.90;99.90;;;19.74;84.81;98314.47;5215138;28;20206;-61
2022/05/13 09:54:16;;;;;;;9.93;6.15;;;18.80;99.90;;;19.63;82.45;98314.16;5203657;28;21714;-61
2022/05/13 09:56:55;;;;;;;7.00;6.35;;;18.70;99.90;;;19.67;84.17;98313.44;5206730;28;20218;-62
2022/05/13 09:59:29;;;;;;;9.27;5.45;;;18.80;99.90;;;19.80;84.54;98310.34;5206294;28;20193;-60
2022/05/13 10:02:21;;;;;;;7.38;5.63;;;18.90;99.90;;;20.09;86.34;98317.16;5195268;28;20256;-61
2022/05/13 10:05:12;;;;;;;9.63;5.60;;;19.20;99.90;;;20.14;81.96;98307.78;5198985;28;20218;-60
2022/05/13 10:07:56;;;;;;;7.82;5.20;;;19.20;99.90;;;20.10;80.69;98306.81;5209495;28;20204;-59
2022/05/13 10:16:29;;;;;;;7.75;4.78;;;19.40;99.90;;;20.33;82.72;98310.03;5216302;28;20213;-61
2022/05/13 10:19:10;;;;;;;8.43;5.28;;;19.40;99.90;;;20.23;80.78;98311.50;5201613;28;20226;-60
2022/05/13 10:21:49;;;;;;;8.93;5.75;;;19.40;99.90;;;20.35;82.71;98302.28;5206048;28;20213;-60
2022/05/13 10:24:32;;;;;;;7.55;4.90;;;19.50;99.90;;;20.37;80.19;98305.78;5198657;28;20711;-60
2022/05/13 10:27:08;;;;;;;10.63;4.95;;;19.70;99.90;;;20.40;76.59;98301.56;5205027;28;20690;-61
2022/05/13 10:29:45;;;;;;;6.05;4.60;;;19.80;99.90;;;20.60;76.84;98302.09;5209248;28;20594;-62
2022/05/13 10:32:28;;;;;;;7.43;4.63;;;20.00;99.90;;;20.97;79.12;98300.34;5211346;28;20616;-61
2022/05/13 10:35:10;;;;;;;8.50;4.30;;;20.30;99.90;;;21.11;75.82;98303.25;5212844;28;20217;-62
2022/05/13 10:37:58;;;;;;;8.70;4.28;;;20.40;99.90;;;21.14;72.59;98306.81;5203519;28;20244;-59
2022/05/13 10:40:38;;;;;;;6.25;4.03;;;20.30;99.90;;;21.23;68.37;98302.66;5204103;28;20596;-62
2022/05/13 10:43:17;;;;;;;5.70;4.00;;;20.40;99.90;;;21.34;68.42;98301.16;5201225;28;20210;-62
2022/05/13 10:45:52;;;;;;;5.57;3.83;;;20.50;99.90;;;21.46;70.00;98293.69;5197159;28;20228;-62
2022/05/13 10:48:30;;;;;;;5.82;4.03;;;20.60;99.90;;;21.58;65.38;98296.53;5198164;28;20205;-60
2022/05/13 10:51:14;;;;;;;9.88;4.32;;;20.80;99.90;;;21.55;67.38;98295.59;5199224;28;20305;-59
2022/05/13 10:54:19;;;;;;;6.88;3.78;;;20.60;99.90;;;21.54;67.75;98307.69;5210183;28;20229;-61
2022/05/13 10:57:03;;;;;;;5.13;3.55;;;20.50;99.90;;;21.56;63.96;98300.81;5197823;28;20295;-60
2022/05/13 10:59:56;;;;;;;7.15;4.25;;;20.50;99.90;;;21.34;64.00;98311.56;5199232;28;20208;-57
2022/05/13 11:03:12;;;;;;;4.40;3.50;;;20.20;99.90;;;21.50;64.25;98308.50;5197357;28;20221;-61
2022/05/13 11:06:05;;;;;;;7.25;4.10;;;20.30;99.90;;;21.41;61.59;98307.44;5199849;28;20253;-60
2022/05/13 11:08:51;;;;;;;5.15;3.88;;;20.40;99.90;;;21.37;62.17;98306.47;5193929;28;20285;-60
2022/05/13 11:11:42;;;;;;;6.35;4.00;;;20.20;99.90;;;21.15;63.43;98305.97;5199220;28;20198;-60
2022/05/13 11:14:46;;;;;;;4.57;3.85;;;20.20;99.90;;;21.41;61.38;98308.31;5197383;28;20210;-62
2022/05/13 11:17:34;;;;;;;6.22;3.90;;;20.30;99.90;;;21.63;62.25;98303.53;5199663;28;20208;-61